createdAt,value
2018-12-12T00:02:22.953Z,21.53
2018-12-12T00:04:55.241Z,22.13
2018-12-12T00:07:25.460Z,22.30
2018-12-12T00:09:56.603Z,24.23
2018-12-12T00:12:26.758Z,23.77
2018-12-12T00:14:56.900Z,22.80
2018-12-12T00:17:27.064Z,19.00
2018-12-12T00:19:58.327Z,22.40
2018-12-12T00:22:28.443Z,23.27
2018-12-12T00:24:58.584Z,22.03
2018-12-12T00:27:28.741Z,21.93
2018-12-12T00:29:58.949Z,22.47
2018-12-12T00:32:29.086Z,21.20
2018-12-12T00:34:59.237Z,22.07
2018-12-12T00:37:29.353Z,21.80
2018-12-12T00:40:00.062Z,20.90
2018-12-12T00:42:30.181Z,21.37
2018-12-12T00:45:00.469Z,26.37
2018-12-12T00:47:30.614Z,23.93
2018-12-12T00:50:00.756Z,22.93
2018-12-12T00:52:30.881Z,24.67
2018-12-12T00:55:01.039Z,25.33
2018-12-12T00:57:31.630Z,25.07
2018-12-12T01:00:01.774Z,26.10
2018-12-12T01:02:33.136Z,24.00
2018-12-12T01:05:03.331Z,26.87
2018-12-12T01:07:33.431Z,26.27
2018-12-12T01:10:03.623Z,26.07
2018-12-12T01:12:33.763Z,27.57
2018-12-12T01:15:03.892Z,27.70
2018-12-12T01:17:34.048Z,27.03
2018-12-12T01:20:04.793Z,27.17
2018-12-12T01:22:35.007Z,27.67
2018-12-12T01:25:05.220Z,26.80
2018-12-12T01:27:35.346Z,29.93
2018-12-12T01:30:05.602Z,30.03
2018-12-12T01:32:35.694Z,29.97
2018-12-12T01:35:06.238Z,30.17
2018-12-12T01:37:36.342Z,29.90
2018-12-12T01:40:06.839Z,30.67
2018-12-12T01:42:37.010Z,31.20
2018-12-12T01:45:07.211Z,33.47
2018-12-12T01:47:37.303Z,33.60
2018-12-12T01:50:07.455Z,32.33
2018-12-12T01:52:37.596Z,32.13
2018-12-12T01:55:07.756Z,31.37
2018-12-12T01:57:37.889Z,31.27
2018-12-12T02:00:08.027Z,31.47
2018-12-12T02:02:38.220Z,32.07
2018-12-12T02:05:08.361Z,31.27
2018-12-12T02:07:38.557Z,32.87
2018-12-12T02:10:08.822Z,31.87
2018-12-12T02:12:39.001Z,33.07
2018-12-12T02:15:09.066Z,32.17
2018-12-12T02:17:39.186Z,32.17
2018-12-12T02:20:09.341Z,31.33
2018-12-12T02:22:39.514Z,34.63
2018-12-12T02:25:09.691Z,29.90
2018-12-12T02:27:39.839Z,33.30
2018-12-12T02:30:09.980Z,32.50
2018-12-12T02:32:40.179Z,34.67
2018-12-12T02:35:10.315Z,29.90
2018-12-12T02:37:40.384Z,27.03
2018-12-12T02:40:10.531Z,27.30
2018-12-12T02:42:40.630Z,28.80
2018-12-12T02:45:10.789Z,29.20
2018-12-12T02:47:41.018Z,29.30
2018-12-12T02:50:11.136Z,26.70
2018-12-12T02:52:41.219Z,28.37
2018-12-12T02:55:11.308Z,26.97
2018-12-12T02:57:41.549Z,29.60
2018-12-12T03:00:11.711Z,29.60
2018-12-12T03:02:44.014Z,27.77
2018-12-12T03:05:14.262Z,27.30
2018-12-12T03:07:44.397Z,28.70
2018-12-12T03:10:14.629Z,29.20
2018-12-12T03:12:51.443Z,31.77
2018-12-12T03:15:21.694Z,31.33
2018-12-12T03:17:51.838Z,31.97
2018-12-12T03:20:22.088Z,30.67
2018-12-12T03:22:52.224Z,30.00
2018-12-12T03:25:22.587Z,31.90
2018-12-12T03:27:52.795Z,34.77
2018-12-12T03:30:22.949Z,35.23
2018-12-12T03:32:53.033Z,33.43
2018-12-12T03:35:23.177Z,31.53
2018-12-12T03:37:53.293Z,30.67
2018-12-12T03:40:23.937Z,30.20
2018-12-12T03:42:54.547Z,32.00
2018-12-12T03:45:24.682Z,30.87
2018-12-12T03:47:54.886Z,30.90
2018-12-12T03:50:25.038Z,31.03
2018-12-12T03:52:55.214Z,30.30
2018-12-12T03:55:25.454Z,30.23
2018-12-12T03:57:55.670Z,30.17
2018-12-12T04:00:25.837Z,32.37
2018-12-12T04:02:55.944Z,31.63
2018-12-12T04:05:27.168Z,30.97
2018-12-12T04:07:57.284Z,29.20
2018-12-12T04:10:27.399Z,29.33
2018-12-12T04:12:57.617Z,29.97
2018-12-12T04:15:27.725Z,35.87
2018-12-12T04:17:57.864Z,44.00
2018-12-12T04:20:28.037Z,66.70
2018-12-12T04:22:59.558Z,53.40
2018-12-12T04:25:30.448Z,42.43
2018-12-12T04:28:00.696Z,38.57
2018-12-12T04:30:30.818Z,36.43
2018-12-12T04:33:00.946Z,33.77
2018-12-12T04:35:31.104Z,37.40
2018-12-12T04:38:01.226Z,37.80
2018-12-12T04:40:31.402Z,30.07
2018-12-12T04:43:01.514Z,29.53
2018-12-12T04:45:31.646Z,32.97
2018-12-12T04:48:01.778Z,35.23
2018-12-12T04:50:31.954Z,51.00
2018-12-12T04:53:02.050Z,58.13
2018-12-12T04:55:32.298Z,36.07
2018-12-12T04:58:02.405Z,32.57
2018-12-12T05:00:32.510Z,28.53
2018-12-12T05:03:02.772Z,31.20
2018-12-12T05:05:41.911Z,30.00
2018-12-12T05:08:12.064Z,28.30
2018-12-12T05:10:42.169Z,30.47
2018-12-12T05:13:12.341Z,29.47
2018-12-12T05:15:42.441Z,29.30
2018-12-12T05:18:12.635Z,28.23
2018-12-12T05:20:42.753Z,26.60
2018-12-12T05:23:12.821Z,27.67
2018-12-12T05:25:42.961Z,26.93
2018-12-12T05:28:13.041Z,27.40
2018-12-12T05:30:43.202Z,27.53
2018-12-12T05:33:13.349Z,29.10
2018-12-12T05:35:43.450Z,28.67
2018-12-12T05:38:13.538Z,29.90
2018-12-12T05:40:45.730Z,30.07
2018-12-12T05:43:15.922Z,31.97
2018-12-12T05:45:46.202Z,33.37
2018-12-12T05:48:17.931Z,30.30
2018-12-12T05:50:48.511Z,35.10
2018-12-12T05:53:18.926Z,36.33
2018-12-12T05:55:49.059Z,34.93
2018-12-12T05:58:19.134Z,31.50
2018-12-12T06:00:49.312Z,30.50
2018-12-12T06:03:19.405Z,32.43
2018-12-12T06:05:49.515Z,32.80
2018-12-12T06:08:19.600Z,30.37
2018-12-12T06:10:49.757Z,30.47
2018-12-12T06:13:19.957Z,30.87
2018-12-12T06:15:50.019Z,29.40
2018-12-12T06:18:20.073Z,30.20
2018-12-12T06:20:50.131Z,29.60
2018-12-12T06:23:20.209Z,28.80
2018-12-12T06:25:50.417Z,28.97
2018-12-12T06:28:20.465Z,32.20
2018-12-12T06:30:50.546Z,31.07
2018-12-12T06:33:20.638Z,31.60
2018-12-12T06:35:50.803Z,31.80
2018-12-12T06:38:20.853Z,32.07
2018-12-12T06:40:51.331Z,33.20
2018-12-12T06:43:21.398Z,32.43
2018-12-12T06:45:51.499Z,30.97
2018-12-12T06:48:21.566Z,34.93
2018-12-12T06:50:51.668Z,34.50
2018-12-12T06:53:21.724Z,34.53
2018-12-12T06:55:51.813Z,40.23
2018-12-12T06:58:22.113Z,37.77
2018-12-12T07:00:52.352Z,40.53
2018-12-12T07:03:22.471Z,43.07
2018-12-12T07:05:52.520Z,45.87
2018-12-12T07:08:22.628Z,47.57
2018-12-12T07:10:52.718Z,46.70
2018-12-12T07:13:22.784Z,46.70
2018-12-12T07:15:52.909Z,47.67
2018-12-12T07:18:23.105Z,50.80
2018-12-12T07:20:53.254Z,47.77
2018-12-12T07:23:23.316Z,51.30
2018-12-12T07:25:53.390Z,48.53
2018-12-12T07:28:23.454Z,46.07
2018-12-12T07:30:53.507Z,45.60
2018-12-12T07:33:23.595Z,43.03
2018-12-12T07:35:59.321Z,45.27
2018-12-12T07:38:25.844Z,42.80
2018-12-12T07:40:56.043Z,39.00
2018-12-12T07:43:28.183Z,40.70
2018-12-12T07:46:03.883Z,41.43
2018-12-12T07:48:35.994Z,38.73
2018-12-12T07:51:27.009Z,39.17
2018-12-12T07:54:02.556Z,42.20
2018-12-12T07:56:32.701Z,42.10
2018-12-12T07:59:02.770Z,43.53
2018-12-12T08:01:32.864Z,41.50
2018-12-12T08:04:02.997Z,44.60
2018-12-12T08:06:33.085Z,38.63
2018-12-12T08:09:04.425Z,40.13
2018-12-12T08:11:34.809Z,38.00
2018-12-12T08:14:04.904Z,41.03
2018-12-12T08:16:34.963Z,37.27
2018-12-12T08:19:05.048Z,38.77
2018-12-12T08:21:36.187Z,40.27
2018-12-12T08:24:06.291Z,42.43
2018-12-12T08:26:37.634Z,46.87
2018-12-12T08:29:07.730Z,38.27
2018-12-12T08:31:38.155Z,40.70
2018-12-12T08:34:08.314Z,37.67
2018-12-12T08:36:38.366Z,36.50
2018-12-12T08:39:08.784Z,36.67
2018-12-12T08:41:40.912Z,35.60
2018-12-12T08:44:11.483Z,37.73
2018-12-12T08:46:41.539Z,35.20
2018-12-12T08:49:12.545Z,35.80
2018-12-12T08:51:43.144Z,31.97
2018-12-12T08:54:13.217Z,36.00
2018-12-12T08:56:43.806Z,34.87
2018-12-12T08:59:14.858Z,31.37
2018-12-12T09:01:45.459Z,37.37
2018-12-12T09:04:15.534Z,40.20
2018-12-12T09:06:46.620Z,41.33
2018-12-12T09:09:17.714Z,36.97
2018-12-12T09:11:47.794Z,37.83
2018-12-12T09:14:17.849Z,33.37
2018-12-12T09:16:48.986Z,35.50
2018-12-12T09:19:19.730Z,35.33
2018-12-12T09:21:49.886Z,32.47
2018-12-12T09:24:20.097Z,32.43
2018-12-12T09:26:50.369Z,35.33
2018-12-12T09:29:20.468Z,37.23
2018-12-12T09:31:52.637Z,33.90
2018-12-12T09:34:24.773Z,34.37
2018-12-12T09:36:56.988Z,34.30
2018-12-12T09:39:27.056Z,35.30
2018-12-12T09:41:57.193Z,40.67
2018-12-12T09:44:27.286Z,40.57
2018-12-12T09:46:57.477Z,37.40
2018-12-12T09:49:27.729Z,33.77
2018-12-12T09:51:59.858Z,34.53
2018-12-12T09:54:32.017Z,32.30
2018-12-12T09:57:02.115Z,31.83
2018-12-12T09:59:32.265Z,32.43
2018-12-12T10:02:02.419Z,32.87
2018-12-12T10:04:32.607Z,28.73
2018-12-12T10:07:02.743Z,33.30
2018-12-12T10:09:32.818Z,36.90
2018-12-12T10:12:02.896Z,29.40
2018-12-12T10:14:33.035Z,29.70
2018-12-12T10:17:04.430Z,29.77
2018-12-12T10:19:34.599Z,31.67
2018-12-12T10:22:04.963Z,34.97
2018-12-12T10:24:35.360Z,38.33
2018-12-12T10:27:05.479Z,33.47
2018-12-12T10:29:35.533Z,27.87
2018-12-12T10:32:05.609Z,27.63
2018-12-12T10:37:10.927Z,26.10
2018-12-12T10:39:41.367Z,22.93
2018-12-12T10:42:11.417Z,24.63
2018-12-12T10:44:41.456Z,26.27
2018-12-12T10:47:11.502Z,24.43
2018-12-12T10:49:41.618Z,24.27
2018-12-12T10:52:11.830Z,27.13
2018-12-12T10:54:41.888Z,26.67
2018-12-12T10:57:11.910Z,33.17
2018-12-12T10:59:42.006Z,23.57
2018-12-12T11:02:17.308Z,25.53
2018-12-12T11:04:47.413Z,23.50
2018-12-12T11:07:17.575Z,28.60
2018-12-12T11:09:47.614Z,28.50
2018-12-12T11:12:17.760Z,31.50
2018-12-12T11:14:47.929Z,30.10
2018-12-12T11:17:18.056Z,31.57
2018-12-12T11:19:48.167Z,35.33
2018-12-12T11:22:18.286Z,42.13
2018-12-12T11:24:48.318Z,34.13
2018-12-12T11:27:18.440Z,35.27
2018-12-12T11:29:48.483Z,34.37
2018-12-12T11:32:18.655Z,38.57
2018-12-12T11:34:48.690Z,39.67
2018-12-12T11:37:18.747Z,37.80
2018-12-12T11:39:49.959Z,33.73
2018-12-12T11:42:20.084Z,34.67
2018-12-12T11:44:50.141Z,31.53
2018-12-12T11:47:20.216Z,32.07
2018-12-12T11:49:50.353Z,33.17
2018-12-12T11:52:20.499Z,31.53
2018-12-12T11:54:51.710Z,30.20
2018-12-12T11:57:22.390Z,27.60
2018-12-12T11:59:52.550Z,29.40
2018-12-12T12:02:22.595Z,28.20
2018-12-12T12:04:52.662Z,30.57
2018-12-12T12:07:22.906Z,29.67
2018-12-12T12:09:53.054Z,31.90
2018-12-12T12:12:23.087Z,30.30
2018-12-12T12:14:55.310Z,32.13
2018-12-12T12:17:25.390Z,32.67
2018-12-12T12:19:55.570Z,28.90
2018-12-12T12:22:25.690Z,32.20
2018-12-12T12:24:55.770Z,44.10
2018-12-12T12:27:25.975Z,41.67
2018-12-12T12:29:56.022Z,34.90
2018-12-12T12:32:26.107Z,32.47
2018-12-12T12:34:56.195Z,34.17
2018-12-12T12:37:26.398Z,30.77
2018-12-12T12:39:56.559Z,30.23
2018-12-12T12:42:26.603Z,31.47
2018-12-12T12:44:56.692Z,44.53
2018-12-12T12:47:26.777Z,49.43
2018-12-12T12:49:56.925Z,33.40
2018-12-12T12:52:27.080Z,34.63
2018-12-12T12:54:57.276Z,28.63
2018-12-12T12:57:27.455Z,28.23
2018-12-12T12:59:57.616Z,26.20
2018-12-12T13:02:27.744Z,28.87
2018-12-12T13:04:57.869Z,35.50
2018-12-12T13:07:28.022Z,34.73
2018-12-12T13:09:58.198Z,36.57
2018-12-12T13:12:28.318Z,37.97
2018-12-12T13:14:58.481Z,34.83
2018-12-12T13:17:28.609Z,44.10
2018-12-12T13:20:00.018Z,35.53
2018-12-12T13:22:30.390Z,41.50
2018-12-12T13:25:00.569Z,43.13
2018-12-12T13:27:30.765Z,41.17
2018-12-12T13:30:00.891Z,48.00
2018-12-12T13:32:31.040Z,41.87
2018-12-12T13:35:01.125Z,40.60
2018-12-12T13:37:31.270Z,43.57
2018-12-12T13:40:01.434Z,42.70
2018-12-12T13:42:31.761Z,45.27
2018-12-12T13:45:01.885Z,46.37
2018-12-12T13:47:33.194Z,43.37
2018-12-12T13:50:03.329Z,43.40
2018-12-12T13:52:33.718Z,41.70
2018-12-12T13:55:03.976Z,40.20
2018-12-12T13:57:34.330Z,40.30
2018-12-12T14:00:11.920Z,39.80
2018-12-12T14:02:45.135Z,40.17
2018-12-12T14:05:15.437Z,43.87
2018-12-12T14:07:46.531Z,44.03
2018-12-12T14:10:19.254Z,47.67
2018-12-12T14:12:49.770Z,37.57
2018-12-12T14:15:20.892Z,60.93
2018-12-12T14:17:51.251Z,59.57
2018-12-12T14:20:21.380Z,57.63
2018-12-12T14:22:51.603Z,58.30
2018-12-12T14:25:21.825Z,56.93
2018-12-12T14:27:52.978Z,54.43
2018-12-12T14:30:23.377Z,48.57
2018-12-12T14:32:53.676Z,48.17
2018-12-12T14:35:23.853Z,49.27
2018-12-12T14:37:54.202Z,47.70
2018-12-12T14:40:24.382Z,52.50
2018-12-12T14:42:54.549Z,43.53
2018-12-12T14:45:24.789Z,43.73
2018-12-12T14:47:55.145Z,41.00
2018-12-12T14:50:25.468Z,37.77
2018-12-12T14:52:55.745Z,37.53
2018-12-12T14:55:25.923Z,35.57
2018-12-12T14:57:56.137Z,36.13
2018-12-12T15:00:26.503Z,35.57
2018-12-12T15:02:57.473Z,38.77
2018-12-12T15:05:27.760Z,40.70
2018-12-12T15:07:57.892Z,48.53
2018-12-12T15:10:28.090Z,52.77
2018-12-12T15:12:58.488Z,61.93
2018-12-12T15:15:28.768Z,64.77
2018-12-12T15:17:59.118Z,70.90
2018-12-12T15:20:30.322Z,78.13
2018-12-12T15:23:00.488Z,74.63
2018-12-12T15:25:30.696Z,81.10
2018-12-12T15:28:02.250Z,85.47
2018-12-12T15:30:32.413Z,80.43
2018-12-12T15:33:02.743Z,76.50
2018-12-12T15:35:32.821Z,66.27
2018-12-12T15:38:02.948Z,72.97
2018-12-12T15:40:34.216Z,78.47
2018-12-12T15:43:04.375Z,66.63
2018-12-12T15:45:34.618Z,60.67
2018-12-12T15:48:04.752Z,52.27
2018-12-12T15:50:35.042Z,45.73
2018-12-12T15:53:05.222Z,43.50
2018-12-12T15:55:35.450Z,51.50
2018-12-12T15:58:05.974Z,52.07
2018-12-12T16:00:36.544Z,54.47
2018-12-12T16:03:07.581Z,53.03
2018-12-12T16:05:38.827Z,55.07
2018-12-12T16:08:09.108Z,59.63
2018-12-12T16:10:39.419Z,55.60
2018-12-12T16:13:09.521Z,55.23
2018-12-12T16:15:45.931Z,54.23
2018-12-12T16:18:16.176Z,52.50
2018-12-12T16:20:46.474Z,50.40
2018-12-12T16:23:16.626Z,53.67
2018-12-12T16:25:46.792Z,56.20
2018-12-12T16:28:16.927Z,53.57
2018-12-12T16:30:47.060Z,55.03
2018-12-12T16:33:17.247Z,53.77
2018-12-12T16:35:47.340Z,48.43
2018-12-12T16:38:17.539Z,49.67
2018-12-12T16:40:48.592Z,55.87
2018-12-12T16:43:18.736Z,74.17
2018-12-12T16:45:54.886Z,86.20
2018-12-12T16:48:25.001Z,85.37
2018-12-12T16:50:55.165Z,89.37
2018-12-12T16:53:25.981Z,106.63
2018-12-12T16:55:56.057Z,115.03
2018-12-12T16:58:26.234Z,109.43
2018-12-12T17:00:56.503Z,101.63
2018-12-12T17:03:26.724Z,100.53
2018-12-12T17:05:57.157Z,91.77
2018-12-12T17:08:27.596Z,91.40
2018-12-12T17:10:57.864Z,97.17
2018-12-12T17:13:27.963Z,56.57
2018-12-12T17:15:58.040Z,51.67
2018-12-12T17:18:28.865Z,66.57
2018-12-12T17:20:59.160Z,76.47
2018-12-12T17:23:29.459Z,100.97
2018-12-12T17:25:59.566Z,138.90
2018-12-12T17:28:29.867Z,212.93
2018-12-12T17:31:00.130Z,279.83
2018-12-12T17:33:30.367Z,294.23
2018-12-12T17:36:00.479Z,271.20
2018-12-12T17:38:30.530Z,211.70
2018-12-12T17:41:00.711Z,300.47
2018-12-12T17:43:30.754Z,70.80
2018-12-12T17:46:01.001Z,61.87
2018-12-12T17:48:32.174Z,88.53
2018-12-12T17:51:02.695Z,71.30
2018-12-12T17:53:33.037Z,88.07
2018-12-12T17:56:03.275Z,82.40
2018-12-12T17:58:33.385Z,77.97
2018-12-12T18:01:03.450Z,73.83
2018-12-12T18:03:36.866Z,84.50
2018-12-12T18:06:23.974Z,147.30
2018-12-12T18:08:54.122Z,54.07
2018-12-12T18:11:26.723Z,41.17
2018-12-12T18:13:57.060Z,42.07
2018-12-12T18:16:29.205Z,39.83
2018-12-12T18:18:59.288Z,42.47
2018-12-12T18:21:29.679Z,43.20
2018-12-12T18:24:02.863Z,55.87
2018-12-12T18:26:33.071Z,112.97
2018-12-12T18:29:03.354Z,206.27
2018-12-12T18:31:44.247Z,209.80
2018-12-12T18:34:34.112Z,189.97
2018-12-12T18:37:04.231Z,110.33
2018-12-12T18:39:34.430Z,73.23
2018-12-12T18:42:08.435Z,83.77
2018-12-12T18:44:44.110Z,83.97
2018-12-12T18:47:14.319Z,76.57
2018-12-12T18:49:44.439Z,81.67
2018-12-12T18:52:21.803Z,63.10
2018-12-12T18:54:52.535Z,49.60
2018-12-12T18:57:24.631Z,48.37
2018-12-12T18:59:54.799Z,46.83
2018-12-12T19:02:25.071Z,58.83
2018-12-12T19:04:55.617Z,93.27
2018-12-12T19:07:25.826Z,48.97
2018-12-12T19:09:56.089Z,43.07
2018-12-12T19:12:26.366Z,42.37
2018-12-12T19:15:04.309Z,36.53
2018-12-12T19:17:34.414Z,38.17
2018-12-12T19:20:05.121Z,38.10
2018-12-12T19:22:35.251Z,37.80
2018-12-12T19:25:05.437Z,36.67
2018-12-12T19:27:36.286Z,36.20
2018-12-12T19:30:06.953Z,34.60
2018-12-12T19:32:37.086Z,33.80
2018-12-12T19:35:08.824Z,33.40
2018-12-12T19:37:38.876Z,46.93
2018-12-12T19:40:10.440Z,90.33
2018-12-12T19:42:40.529Z,77.87
2018-12-12T19:45:10.737Z,161.70
2018-12-12T19:47:40.805Z,77.67
2018-12-12T19:50:10.909Z,53.63
2018-12-12T19:52:40.980Z,49.13
2018-12-12T19:55:11.199Z,38.50
2018-12-12T19:57:41.285Z,38.67
2018-12-12T20:00:12.547Z,38.07
2018-12-12T20:02:43.829Z,42.20
2018-12-12T20:05:13.891Z,47.70
2018-12-12T20:07:43.983Z,38.90
2018-12-12T20:10:14.122Z,41.97
2018-12-12T20:12:44.565Z,41.97
2018-12-12T20:15:20.070Z,42.30
2018-12-12T20:17:50.267Z,46.43
2018-12-12T20:20:20.389Z,47.53
2018-12-12T20:22:50.620Z,43.80
2018-12-12T20:25:20.840Z,43.97
2018-12-12T20:27:50.998Z,43.70
2018-12-12T20:30:21.139Z,42.63
2018-12-12T20:32:51.323Z,50.83
2018-12-12T20:35:21.683Z,69.43
2018-12-12T20:37:51.810Z,45.43
2018-12-12T20:40:22.061Z,71.10
2018-12-12T20:42:52.200Z,53.03
2018-12-12T20:45:22.378Z,48.23
2018-12-12T20:47:55.467Z,48.90
2018-12-12T20:50:25.756Z,47.83
2018-12-12T20:52:55.920Z,51.17
2018-12-12T20:55:26.129Z,52.10
2018-12-12T20:57:56.688Z,49.10
2018-12-12T21:00:26.905Z,44.20
2018-12-12T21:02:57.007Z,36.77
2018-12-12T21:05:27.107Z,35.93
2018-12-12T21:07:57.288Z,35.83
2018-12-12T21:10:29.871Z,35.27
2018-12-12T21:13:00.510Z,35.17
2018-12-12T21:15:30.695Z,34.33
2018-12-12T21:18:00.877Z,33.07
2018-12-12T21:20:30.993Z,35.33
2018-12-12T21:23:01.096Z,35.60
2018-12-12T21:25:32.983Z,37.13
2018-12-12T21:28:03.213Z,38.10
2018-12-12T21:30:33.343Z,38.43
2018-12-12T21:33:03.399Z,37.80
2018-12-12T21:35:33.727Z,44.83
2018-12-12T21:38:04.131Z,45.03
2018-12-12T21:40:34.292Z,51.37
2018-12-12T21:43:04.427Z,51.70
2018-12-12T21:45:35.352Z,55.93
2018-12-12T21:48:05.416Z,53.13
2018-12-12T21:50:35.524Z,46.80
2018-12-12T21:53:05.635Z,42.80
2018-12-12T21:55:35.734Z,37.43
2018-12-12T21:58:05.794Z,40.97
2018-12-12T22:00:36.003Z,39.03
2018-12-12T22:03:06.074Z,39.50
2018-12-12T22:05:36.129Z,39.53
2018-12-12T22:08:06.195Z,38.13
2018-12-12T22:10:36.486Z,40.50
2018-12-12T22:13:07.003Z,36.23
2018-12-12T22:15:37.372Z,35.53
2018-12-12T22:18:07.423Z,36.87
2018-12-12T22:20:37.576Z,37.07
2018-12-12T22:23:07.658Z,39.97
2018-12-12T22:25:37.745Z,45.43
2018-12-12T22:28:07.861Z,44.27
2018-12-12T22:30:37.908Z,49.17
2018-12-12T22:33:07.946Z,46.93
2018-12-12T22:35:38.895Z,48.37
2018-12-12T22:38:09.006Z,44.57
2018-12-12T22:40:39.097Z,44.20
2018-12-12T22:43:09.186Z,43.40
2018-12-12T22:45:40.666Z,41.80
2018-12-12T22:48:10.858Z,42.33
2018-12-12T22:50:40.934Z,40.80
2018-12-12T22:53:10.971Z,38.37
2018-12-12T22:55:41.050Z,40.27
2018-12-12T22:58:11.155Z,41.07
2018-12-12T23:00:43.371Z,41.73
2018-12-12T23:03:15.455Z,40.70
2018-12-12T23:05:45.568Z,40.10
2018-12-12T23:08:15.645Z,42.57
2018-12-12T23:10:45.717Z,42.10
2018-12-12T23:13:15.777Z,40.77
2018-12-12T23:15:45.840Z,41.37
2018-12-12T23:18:15.913Z,38.40
2018-12-12T23:20:46.023Z,40.17
2018-12-12T23:23:16.097Z,42.67
2018-12-12T23:25:46.173Z,39.97
2018-12-12T23:28:16.260Z,38.37
2018-12-12T23:30:46.417Z,39.07
2018-12-12T23:33:16.528Z,37.40
2018-12-12T23:35:46.670Z,38.63
2018-12-12T23:38:16.760Z,36.37
2018-12-12T23:40:46.782Z,37.33
2018-12-12T23:43:16.870Z,40.93
2018-12-12T23:45:46.909Z,41.27
2018-12-12T23:48:16.957Z,38.53
2018-12-12T23:50:47.015Z,38.37
2018-12-12T23:53:17.061Z,40.17
2018-12-12T23:55:47.174Z,38.33
2018-12-12T23:58:17.298Z,37.93
